sensor_id;sensor_type;location;lat;lon;timestamp;pressure;altitude;pressure_sealevel;temperature;humidity
68859;BME280;55864;49.238;8.092;2023-06-26T00:00:27;99216.28;;;23.33;41.52
68859;BME280;55864;49.238;8.092;2023-06-26T00:02:27;99215.09;;;23.29;42.01
68859;BME280;55864;49.238;8.092;2023-06-26T00:04:28;99215.47;;;23.33;41.74
68859;BME280;55864;49.238;8.092;2023-06-26T00:06:29;99219.13;;;23.20;42.00
68859;BME280;55864;49.238;8.092;2023-06-26T00:08:29;99213.31;;;23.23;42.05
68859;BME280;55864;49.238;8.092;2023-06-26T00:10:30;99214.25;;;23.29;42.40
68859;BME280;55864;49.238;8.092;2023-06-26T00:12:31;99212.22;;;23.43;42.03
68859;BME280;55864;49.238;8.092;2023-06-26T00:14:31;99212.38;;;23.59;41.64
68859;BME280;55864;49.238;8.092;2023-06-26T00:16:33;99222.19;;;23.65;41.07
68859;BME280;55864;49.238;8.092;2023-06-26T00:18:34;99211.31;;;23.49;41.99
68859;BME280;55864;49.238;8.092;2023-06-26T00:20:34;99214.31;;;23.41;42.04
68859;BME280;55864;49.238;8.092;2023-06-26T00:22:35;99213.59;;;23.33;42.27
68859;BME280;55864;49.238;8.092;2023-06-26T00:24:35;99215.34;;;23.40;42.03
68859;BME280;55864;49.238;8.092;2023-06-26T00:26:36;99208.22;;;23.33;42.83
68859;BME280;55864;49.238;8.092;2023-06-26T00:28:37;99209.59;;;23.24;42.67
68859;BME280;55864;49.238;8.092;2023-06-26T00:30:38;99204.19;;;23.13;42.97
68859;BME280;55864;49.238;8.092;2023-06-26T00:32:39;99206.31;;;23.22;43.13
68859;BME280;55864;49.238;8.092;2023-06-26T00:34:40;99214.50;;;23.27;43.30
68859;BME280;55864;49.238;8.092;2023-06-26T00:36:42;99212.47;;;23.11;43.31
68859;BME280;55864;49.238;8.092;2023-06-26T00:38:43;99201.66;;;23.18;43.25
68859;BME280;55864;49.238;8.092;2023-06-26T00:40:43;99199.53;;;23.08;43.85
68859;BME280;55864;49.238;8.092;2023-06-26T00:42:45;99200.16;;;22.92;44.30
68859;BME280;55864;49.238;8.092;2023-06-26T00:44:45;99202.22;;;23.08;44.10
68859;BME280;55864;49.238;8.092;2023-06-26T00:46:47;99206.03;;;23.30;43.80
68859;BME280;55864;49.238;8.092;2023-06-26T00:48:49;99196.94;;;23.31;43.65
68859;BME280;55864;49.238;8.092;2023-06-26T00:50:50;99193.53;;;22.95;44.67
68859;BME280;55864;49.238;8.092;2023-06-26T00:52:50;99197.28;;;23.05;44.48
68859;BME280;55864;49.238;8.092;2023-06-26T00:54:51;99197.22;;;23.12;43.87
68859;BME280;55864;49.238;8.092;2023-06-26T00:56:52;99195.34;;;23.12;44.32
68859;BME280;55864;49.238;8.092;2023-06-26T00:58:52;99203.50;;;23.17;43.92
68859;BME280;55864;49.238;8.092;2023-06-26T01:00:53;99197.88;;;23.07;44.01
68859;BME280;55864;49.238;8.092;2023-06-26T01:02:54;99195.19;;;23.07;44.45
68859;BME280;55864;49.238;8.092;2023-06-26T01:04:56;99198.78;;;23.01;44.92
68859;BME280;55864;49.238;8.092;2023-06-26T01:06:56;99205.69;;;22.97;44.82
68859;BME280;55864;49.238;8.092;2023-06-26T01:08:59;99197.84;;;22.96;45.48
68859;BME280;55864;49.238;8.092;2023-06-26T01:11:00;99197.16;;;23.00;44.81
68859;BME280;55864;49.238;8.092;2023-06-26T01:13:00;99197.13;;;22.89;45.53
68859;BME280;55864;49.238;8.092;2023-06-26T01:15:03;99199.63;;;22.72;45.32
68859;BME280;55864;49.238;8.092;2023-06-26T01:17:04;99201.06;;;22.86;45.56
68859;BME280;55864;49.238;8.092;2023-06-26T01:19:10;99198.06;;;22.94;45.71
68859;BME280;55864;49.238;8.092;2023-06-26T01:21:13;99203.00;;;22.97;45.21
68859;BME280;55864;49.238;8.092;2023-06-26T01:23:19;99196.34;;;23.00;45.41
68859;BME280;55864;49.238;8.092;2023-06-26T01:25:26;99192.03;;;22.99;45.27
68859;BME280;55864;49.238;8.092;2023-06-26T01:27:32;99188.66;;;23.03;45.47
68859;BME280;55864;49.238;8.092;2023-06-26T01:29:33;99190.78;;;23.13;45.29
68859;BME280;55864;49.238;8.092;2023-06-26T01:31:35;99182.63;;;23.08;45.05
68859;BME280;55864;49.238;8.092;2023-06-26T01:33:37;99183.09;;;23.05;44.95
68859;BME280;55864;49.238;8.092;2023-06-26T01:35:38;99182.81;;;22.95;45.78
68859;BME280;55864;49.238;8.092;2023-06-26T01:37:40;99176.41;;;22.84;45.68
68859;BME280;55864;49.238;8.092;2023-06-26T01:39:40;99180.56;;;22.80;46.00
68859;BME280;55864;49.238;8.092;2023-06-26T01:41:41;99173.59;;;22.91;45.58
68859;BME280;55864;49.238;8.092;2023-06-26T01:44:07;99174.28;;;22.86;45.93
68859;BME280;55864;49.238;8.092;2023-06-26T01:46:20;99181.28;;;22.87;45.66
68859;BME280;55864;49.238;8.092;2023-06-26T01:48:24;99169.94;;;22.74;46.16
68859;BME280;55864;49.238;8.092;2023-06-26T01:50:28;99183.56;;;22.72;46.57
68859;BME280;55864;49.238;8.092;2023-06-26T01:52:36;99175.66;;;22.77;46.39
68859;BME280;55864;49.238;8.092;2023-06-26T01:54:46;99166.34;;;22.80;46.60
68859;BME280;55864;49.238;8.092;2023-06-26T01:56:50;99170.59;;;22.99;45.98
68859;BME280;55864;49.238;8.092;2023-06-26T01:58:54;99164.53;;;23.03;45.74
68859;BME280;55864;49.238;8.092;2023-06-26T02:00:56;99162.69;;;23.04;46.15
68859;BME280;55864;49.238;8.092;2023-06-26T02:02:57;99166.97;;;22.93;46.47
68859;BME280;55864;49.238;8.092;2023-06-26T02:04:57;99164.44;;;22.98;45.87
68859;BME280;55864;49.238;8.092;2023-06-26T02:06:58;99166.63;;;22.90;46.67
68859;BME280;55864;49.238;8.092;2023-06-26T02:08:59;99178.56;;;22.76;46.80
68859;BME280;55864;49.238;8.092;2023-06-26T02:10:59;99173.00;;;22.89;46.62
68859;BME280;55864;49.238;8.092;2023-06-26T02:13:00;99167.53;;;22.84;46.24
68859;BME280;55864;49.238;8.092;2023-06-26T02:15:02;99171.84;;;22.85;46.36
68859;BME280;55864;49.238;8.092;2023-06-26T02:17:03;99173.63;;;22.61;47.25
68859;BME280;55864;49.238;8.092;2023-06-26T02:19:04;99174.94;;;22.70;47.32
68859;BME280;55864;49.238;8.092;2023-06-26T02:21:05;99167.56;;;22.66;47.20
68859;BME280;55864;49.238;8.092;2023-06-26T02:23:05;99167.72;;;22.71;46.79
68859;BME280;55864;49.238;8.092;2023-06-26T02:25:06;99169.28;;;22.60;47.26
68859;BME280;55864;49.238;8.092;2023-06-26T02:27:07;99166.91;;;22.52;47.53
68859;BME280;55864;49.238;8.092;2023-06-26T02:29:10;99161.16;;;22.48;47.90
68859;BME280;55864;49.238;8.092;2023-06-26T02:31:12;99168.84;;;22.63;47.52
68859;BME280;55864;49.238;8.092;2023-06-26T02:33:12;99162.13;;;22.54;47.59
68859;BME280;55864;49.238;8.092;2023-06-26T02:35:13;99167.91;;;22.69;47.44
68859;BME280;55864;49.238;8.092;2023-06-26T02:37:16;99161.72;;;22.57;47.68
68859;BME280;55864;49.238;8.092;2023-06-26T02:39:16;99167.72;;;22.53;47.96
68859;BME280;55864;49.238;8.092;2023-06-26T02:41:17;99166.25;;;22.38;48.04
68859;BME280;55864;49.238;8.092;2023-06-26T02:43:18;99161.69;;;22.39;48.27
68859;BME280;55864;49.238;8.092;2023-06-26T02:45:19;99172.94;;;22.29;48.45
68859;BME280;55864;49.238;8.092;2023-06-26T02:47:21;99169.59;;;22.34;48.64
68859;BME280;55864;49.238;8.092;2023-06-26T02:49:21;99166.41;;;22.25;48.74
68859;BME280;55864;49.238;8.092;2023-06-26T02:51:22;99167.91;;;22.21;49.08
68859;BME280;55864;49.238;8.092;2023-06-26T02:53:23;99172.06;;;22.17;49.19
68859;BME280;55864;49.238;8.092;2023-06-26T02:55:24;99173.31;;;22.15;48.95
68859;BME280;55864;49.238;8.092;2023-06-26T02:57:26;99169.75;;;22.21;48.58
68859;BME280;55864;49.238;8.092;2023-06-26T02:59:27;99178.44;;;22.16;49.00
68859;BME280;55864;49.238;8.092;2023-06-26T03:01:29;99171.69;;;22.14;48.73
68859;BME280;55864;49.238;8.092;2023-06-26T03:03:30;99173.41;;;22.08;49.12
68859;BME280;55864;49.238;8.092;2023-06-26T03:05:31;99171.53;;;22.27;48.77
68859;BME280;55864;49.238;8.092;2023-06-26T03:07:33;99169.00;;;22.32;48.76
68859;BME280;55864;49.238;8.092;2023-06-26T03:09:35;99171.28;;;22.46;48.54
68859;BME280;55864;49.238;8.092;2023-06-26T03:11:35;99171.69;;;22.32;48.83
68859;BME280;55864;49.238;8.092;2023-06-26T03:13:37;99168.88;;;22.27;48.69
68859;BME280;55864;49.238;8.092;2023-06-26T03:15:37;99165.38;;;22.26;48.47
68859;BME280;55864;49.238;8.092;2023-06-26T03:17:38;99169.63;;;22.16;48.97
68859;BME280;55864;49.238;8.092;2023-06-26T03:19:43;99167.13;;;22.14;48.64
68859;BME280;55864;49.238;8.092;2023-06-26T03:21:53;99170.06;;;22.13;48.91
68859;BME280;55864;49.238;8.092;2023-06-26T03:23:53;99170.94;;;22.07;49.60
68859;BME280;55864;49.238;8.092;2023-06-26T03:25:54;99168.72;;;22.04;49.13
68859;BME280;55864;49.238;8.092;2023-06-26T03:28:04;99172.00;;;21.88;50.01
68859;BME280;55864;49.238;8.092;2023-06-26T03:30:06;99177.81;;;21.78;49.84
68859;BME280;55864;49.238;8.092;2023-06-26T03:32:09;99177.13;;;21.89;49.83
68859;BME280;55864;49.238;8.092;2023-06-26T03:34:10;99176.34;;;21.82;50.09
68859;BME280;55864;49.238;8.092;2023-06-26T03:36:12;99179.88;;;21.76;49.79
68859;BME280;55864;49.238;8.092;2023-06-26T03:38:13;99178.31;;;21.69;49.89
68859;BME280;55864;49.238;8.092;2023-06-26T03:40:15;99183.44;;;21.70;49.75
68859;BME280;55864;49.238;8.092;2023-06-26T03:42:16;99181.09;;;21.80;49.84
68859;BME280;55864;49.238;8.092;2023-06-26T03:44:17;99168.97;;;21.78;50.14
68859;BME280;55864;49.238;8.092;2023-06-26T03:46:21;99180.53;;;21.96;49.41
68859;BME280;55864;49.238;8.092;2023-06-26T03:48:22;99170.78;;;22.02;49.04
68859;BME280;55864;49.238;8.092;2023-06-26T03:50:23;99165.06;;;21.98;48.92
68859;BME280;55864;49.238;8.092;2023-06-26T03:52:26;99170.72;;;21.90;49.56
68859;BME280;55864;49.238;8.092;2023-06-26T03:54:26;99167.88;;;21.85;49.10
68859;BME280;55864;49.238;8.092;2023-06-26T03:56:27;99171.22;;;21.81;49.25
68859;BME280;55864;49.238;8.092;2023-06-26T03:58:27;99168.91;;;21.84;49.26
68859;BME280;55864;49.238;8.092;2023-06-26T04:00:28;99174.31;;;21.78;49.99
68859;BME280;55864;49.238;8.092;2023-06-26T04:02:28;99168.31;;;21.82;49.70
68859;BME280;55864;49.238;8.092;2023-06-26T04:04:29;99178.59;;;21.79;49.98
68859;BME280;55864;49.238;8.092;2023-06-26T04:06:29;99176.16;;;21.77;50.13
68859;BME280;55864;49.238;8.092;2023-06-26T04:08:31;99169.38;;;21.81;49.53
68859;BME280;55864;49.238;8.092;2023-06-26T04:10:32;99169.25;;;21.70;50.15
68859;BME280;55864;49.238;8.092;2023-06-26T04:12:32;99173.94;;;21.74;49.62
68859;BME280;55864;49.238;8.092;2023-06-26T04:14:33;99170.28;;;21.69;50.17
68859;BME280;55864;49.238;8.092;2023-06-26T04:16:33;99176.00;;;21.72;50.04
68859;BME280;55864;49.238;8.092;2023-06-26T04:18:34;99171.53;;;21.66;50.31
68859;BME280;55864;49.238;8.092;2023-06-26T04:20:38;99175.31;;;22.01;49.34
68859;BME280;55864;49.238;8.092;2023-06-26T04:22:39;99178.91;;;22.13;49.70
68859;BME280;55864;49.238;8.092;2023-06-26T04:24:41;99173.09;;;22.16;49.33
68859;BME280;55864;49.238;8.092;2023-06-26T04:26:41;99171.19;;;22.23;48.80
68859;BME280;55864;49.238;8.092;2023-06-26T04:28:42;99175.25;;;22.26;48.71
68859;BME280;55864;49.238;8.092;2023-06-26T04:30:43;99173.63;;;22.25;49.02
68859;BME280;55864;49.238;8.092;2023-06-26T04:32:44;99167.75;;;22.16;49.87
68859;BME280;55864;49.238;8.092;2023-06-26T04:34:44;99166.03;;;22.22;49.66
68859;BME280;55864;49.238;8.092;2023-06-26T04:36:45;99169.09;;;22.25;49.61
68859;BME280;55864;49.238;8.092;2023-06-26T04:38:45;99170.13;;;22.24;49.60
68859;BME280;55864;49.238;8.092;2023-06-26T04:40:47;99166.69;;;22.35;49.59
68859;BME280;55864;49.238;8.092;2023-06-26T04:42:48;99165.59;;;22.25;50.49
68859;BME280;55864;49.238;8.092;2023-06-26T04:44:48;99172.88;;;22.36;50.80
68859;BME280;55864;49.238;8.092;2023-06-26T04:46:49;99156.38;;;22.21;51.05
68859;BME280;55864;49.238;8.092;2023-06-26T04:48:49;99162.91;;;22.25;50.88
68859;BME280;55864;49.238;8.092;2023-06-26T04:50:50;99166.72;;;22.17;50.68
68859;BME280;55864;49.238;8.092;2023-06-26T04:52:50;99166.56;;;22.30;50.02
68859;BME280;55864;49.238;8.092;2023-06-26T04:54:51;99166.63;;;22.42;49.49
68859;BME280;55864;49.238;8.092;2023-06-26T04:56:52;99162.44;;;22.46;49.70
68859;BME280;55864;49.238;8.092;2023-06-26T04:58:53;99163.16;;;22.23;50.27
68859;BME280;55864;49.238;8.092;2023-06-26T05:00:53;99156.50;;;22.62;49.30
68859;BME280;55864;49.238;8.092;2023-06-26T05:02:54;99162.91;;;22.61;49.33
68859;BME280;55864;49.238;8.092;2023-06-26T05:04:54;99163.66;;;22.50;48.41
68859;BME280;55864;49.238;8.092;2023-06-26T05:06:55;99161.47;;;22.59;48.78
68859;BME280;55864;49.238;8.092;2023-06-26T05:08:55;99162.25;;;22.77;48.11
68859;BME280;55864;49.238;8.092;2023-06-26T05:10:56;99162.50;;;22.76;47.96
68859;BME280;55864;49.238;8.092;2023-06-26T05:12:58;99169.34;;;22.54;48.43
68859;BME280;55864;49.238;8.092;2023-06-26T05:14:58;99160.81;;;22.45;47.92
68859;BME280;55864;49.238;8.092;2023-06-26T05:16:59;99166.59;;;22.60;47.30
68859;BME280;55864;49.238;8.092;2023-06-26T05:19:00;99170.53;;;22.76;47.10
68859;BME280;55864;49.238;8.092;2023-06-26T05:21:03;99163.13;;;22.89;46.58
68859;BME280;55864;49.238;8.092;2023-06-26T05:23:05;99168.91;;;22.86;46.27
68859;BME280;55864;49.238;8.092;2023-06-26T05:25:08;99170.94;;;22.91;45.41
68859;BME280;55864;49.238;8.092;2023-06-26T05:27:10;99165.13;;;23.05;44.85
68859;BME280;55864;49.238;8.092;2023-06-26T05:29:13;99165.03;;;23.12;44.26
68859;BME280;55864;49.238;8.092;2023-06-26T05:31:14;99169.66;;;23.34;44.40
68859;BME280;55864;49.238;8.092;2023-06-26T05:33:17;99169.38;;;23.24;45.04
68859;BME280;55864;49.238;8.092;2023-06-26T05:35:20;99162.66;;;23.45;44.76
68859;BME280;55864;49.238;8.092;2023-06-26T05:37:21;99172.59;;;23.68;44.39
68859;BME280;55864;49.238;8.092;2023-06-26T05:39:22;99167.94;;;23.75;44.75
68859;BME280;55864;49.238;8.092;2023-06-26T05:41:23;99163.25;;;23.59;45.56
68859;BME280;55864;49.238;8.092;2023-06-26T05:43:25;99158.25;;;23.51;45.66
68859;BME280;55864;49.238;8.092;2023-06-26T05:45:26;99171.06;;;23.37;46.36
68859;BME280;55864;49.238;8.092;2023-06-26T05:47:27;99167.69;;;23.42;46.51
68859;BME280;55864;49.238;8.092;2023-06-26T05:49:27;99159.56;;;23.60;45.95
68859;BME280;55864;49.238;8.092;2023-06-26T05:51:29;99170.28;;;23.60;46.35
68859;BME280;55864;49.238;8.092;2023-06-26T05:53:30;99167.47;;;23.78;45.69
68859;BME280;55864;49.238;8.092;2023-06-26T05:55:31;99165.25;;;23.75;45.86
68859;BME280;55864;49.238;8.092;2023-06-26T05:57:32;99166.66;;;24.12;44.56
68859;BME280;55864;49.238;8.092;2023-06-26T05:59:35;99163.94;;;24.23;43.83
68859;BME280;55864;49.238;8.092;2023-06-26T06:01:38;99161.72;;;24.60;42.74
68859;BME280;55864;49.238;8.092;2023-06-26T06:03:39;99168.34;;;24.69;41.77
68859;BME280;55864;49.238;8.092;2023-06-26T06:05:40;99165.78;;;24.74;42.01
68859;BME280;55864;49.238;8.092;2023-06-26T06:07:40;99167.66;;;24.74;41.58
68859;BME280;55864;49.238;8.092;2023-06-26T06:09:41;99170.78;;;24.82;41.15
68859;BME280;55864;49.238;8.092;2023-06-26T06:11:41;99169.56;;;24.90;41.24
68859;BME280;55864;49.238;8.092;2023-06-26T06:13:42;99167.97;;;25.05;40.82
68859;BME280;55864;49.238;8.092;2023-06-26T06:15:42;99169.03;;;25.21;40.52
68859;BME280;55864;49.238;8.092;2023-06-26T06:17:44;99173.13;;;25.24;40.36
68859;BME280;55864;49.238;8.092;2023-06-26T06:19:45;99168.63;;;25.29;40.56
68859;BME280;55864;49.238;8.092;2023-06-26T06:21:46;99169.94;;;25.27;39.75
68859;BME280;55864;49.238;8.092;2023-06-26T06:23:46;99171.97;;;25.19;40.23
68859;BME280;55864;49.238;8.092;2023-06-26T06:25:47;99176.88;;;25.23;40.14
68859;BME280;55864;49.238;8.092;2023-06-26T06:27:47;99179.56;;;25.23;40.47
68859;BME280;55864;49.238;8.092;2023-06-26T06:29:48;99176.66;;;25.41;39.64
68859;BME280;55864;49.238;8.092;2023-06-26T06:31:48;99174.78;;;25.41;39.70
68859;BME280;55864;49.238;8.092;2023-06-26T06:33:50;99177.81;;;25.45;39.70
68859;BME280;55864;49.238;8.092;2023-06-26T06:35:51;99174.13;;;25.51;39.85
68859;BME280;55864;49.238;8.092;2023-06-26T06:37:51;99176.84;;;25.51;39.82
68859;BME280;55864;49.238;8.092;2023-06-26T06:39:52;99173.97;;;25.57;39.67
68859;BME280;55864;49.238;8.092;2023-06-26T06:41:52;99177.72;;;25.56;39.90
68859;BME280;55864;49.238;8.092;2023-06-26T06:43:53;99185.47;;;25.53;40.37
68859;BME280;55864;49.238;8.092;2023-06-26T08:40:08;99212.13;;;28.64;37.87
68859;BME280;55864;49.238;8.092;2023-06-26T08:42:09;99206.38;;;28.50;38.21
68859;BME280;55864;49.238;8.092;2023-06-26T08:44:10;99209.28;;;28.34;38.60
68859;BME280;55864;49.238;8.092;2023-06-26T08:46:10;99210.53;;;28.16;39.33
68859;BME280;55864;49.238;8.092;2023-06-26T08:48:12;99211.91;;;28.19;39.08
68859;BME280;55864;49.238;8.092;2023-06-26T08:50:13;99214.47;;;28.50;38.94
68859;BME280;55864;49.238;8.092;2023-06-26T08:52:17;99221.63;;;28.71;38.17
68859;BME280;55864;49.238;8.092;2023-06-26T08:54:25;99226.47;;;28.59;38.40
68859;BME280;55864;49.238;8.092;2023-06-26T08:56:30;99215.94;;;28.73;38.29
68859;BME280;55864;49.238;8.092;2023-06-26T08:58:32;99216.59;;;28.38;38.92
68859;BME280;55864;49.238;8.092;2023-06-26T09:00:33;99223.06;;;28.32;39.23
68859;BME280;55864;49.238;8.092;2023-06-26T09:02:35;99222.13;;;28.58;39.04
68859;BME280;55864;49.238;8.092;2023-06-26T09:04:35;99226.47;;;28.64;39.07
68859;BME280;55864;49.238;8.092;2023-06-26T09:06:36;99225.97;;;28.77;38.99
68859;BME280;55864;49.238;8.092;2023-06-26T09:08:36;99231.16;;;28.84;39.13
68859;BME280;55864;49.238;8.092;2023-06-26T09:10:38;99230.72;;;29.22;38.56
68859;BME280;55864;49.238;8.092;2023-06-26T09:12:39;99230.16;;;29.20;38.41
68859;BME280;55864;49.238;8.092;2023-06-26T09:14:40;99236.97;;;29.28;38.66
68859;BME280;55864;49.238;8.092;2023-06-26T09:16:41;99237.22;;;29.41;38.11
68859;BME280;55864;49.238;8.092;2023-06-26T09:18:42;99239.16;;;30.01;37.54
68859;BME280;55864;49.238;8.092;2023-06-26T09:20:42;99235.84;;;30.34;36.37
68859;BME280;55864;49.238;8.092;2023-06-26T09:22:47;99240.97;;;30.36;36.63
68859;BME280;55864;49.238;8.092;2023-06-26T09:24:47;99247.63;;;30.79;36.30
68859;BME280;55864;49.238;8.092;2023-06-26T09:26:50;99254.94;;;30.88;36.37
68859;BME280;55864;49.238;8.092;2023-06-26T09:28:52;99254.81;;;30.44;35.71
68859;BME280;55864;49.238;8.092;2023-06-26T09:30:52;99245.63;;;30.10;36.56
68859;BME280;55864;49.238;8.092;2023-06-26T09:32:53;99255.13;;;30.13;37.11
68859;BME280;55864;49.238;8.092;2023-06-26T09:34:54;99256.72;;;30.34;36.43
68859;BME280;55864;49.238;8.092;2023-06-26T09:36:55;99258.94;;;31.01;35.30
68859;BME280;55864;49.238;8.092;2023-06-26T09:38:55;99251.81;;;31.10;35.12
68859;BME280;55864;49.238;8.092;2023-06-26T09:40:56;99247.06;;;31.30;34.96
68859;BME280;55864;49.238;8.092;2023-06-26T09:43:03;99260.91;;;31.34;34.98
68859;BME280;55864;49.238;8.092;2023-06-26T09:45:04;99257.28;;;31.05;34.46
68859;BME280;55864;49.238;8.092;2023-06-26T09:47:06;99249.09;;;31.54;34.03
68859;BME280;55864;49.238;8.092;2023-06-26T09:49:08;99256.91;;;31.65;33.62
68859;BME280;55864;49.238;8.092;2023-06-26T09:51:09;99248.50;;;31.95;33.48
68859;BME280;55864;49.238;8.092;2023-06-26T09:53:11;99250.03;;;31.73;33.44
68859;BME280;55864;49.238;8.092;2023-06-26T09:55:12;99251.69;;;31.74;33.43
68859;BME280;55864;49.238;8.092;2023-06-26T09:57:18;99243.53;;;32.02;33.92
68859;BME280;55864;49.238;8.092;2023-06-26T09:59:20;99240.84;;;32.55;33.42
68859;BME280;55864;49.238;8.092;2023-06-26T10:01:20;99251.94;;;32.58;32.39
68859;BME280;55864;49.238;8.092;2023-06-26T10:03:21;99263.41;;;32.55;32.23
68859;BME280;55864;49.238;8.092;2023-06-26T10:05:21;99259.34;;;32.53;32.44
68859;BME280;55864;49.238;8.092;2023-06-26T10:07:22;99260.06;;;32.34;32.48
68859;BME280;55864;49.238;8.092;2023-06-26T10:09:24;99260.03;;;32.39;32.87
68859;BME280;55864;49.238;8.092;2023-06-26T10:11:25;99272.78;;;32.44;32.99
68859;BME280;55864;49.238;8.092;2023-06-26T10:13:34;99262.16;;;32.42;32.89
68859;BME280;55864;49.238;8.092;2023-06-26T10:15:36;99272.84;;;32.63;32.68
68859;BME280;55864;49.238;8.092;2023-06-26T10:17:38;99270.22;;;32.76;32.53
68859;BME280;55864;49.238;8.092;2023-06-26T10:19:44;99259.56;;;32.32;32.26
68859;BME280;55864;49.238;8.092;2023-06-26T10:21:45;99274.47;;;32.35;32.29
68859;BME280;55864;49.238;8.092;2023-06-26T10:23:45;99276.53;;;32.72;31.68
68859;BME280;55864;49.238;8.092;2023-06-26T10:25:48;99274.63;;;33.14;31.32
68859;BME280;55864;49.238;8.092;2023-06-26T10:27:53;99291.72;;;33.20;31.02
68859;BME280;55864;49.238;8.092;2023-06-26T10:29:56;99290.25;;;32.62;31.36
68859;BME280;55864;49.238;8.092;2023-06-26T10:31:58;99294.44;;;32.78;31.03
68859;BME280;55864;49.238;8.092;2023-06-26T10:34:01;99301.16;;;32.62;30.98
68859;BME280;55864;49.238;8.092;2023-06-26T10:36:15;99300.19;;;31.90;31.89
68859;BME280;55864;49.238;8.092;2023-06-26T10:38:15;99302.94;;;32.42;31.72
68859;BME280;55864;49.238;8.092;2023-06-26T10:40:21;99302.81;;;32.58;30.94
68859;BME280;55864;49.238;8.092;2023-06-26T10:42:35;99298.88;;;32.45;31.13
68859;BME280;55864;49.238;8.092;2023-06-26T10:44:40;99293.69;;;33.14;30.32
68859;BME280;55864;49.238;8.092;2023-06-26T10:46:51;99297.16;;;32.78;30.63
68859;BME280;55864;49.238;8.092;2023-06-26T10:49:00;99307.75;;;33.03;29.98
68859;BME280;55864;49.238;8.092;2023-06-26T10:51:13;99305.84;;;33.22;28.82
68859;BME280;55864;49.238;8.092;2023-06-26T10:53:15;99304.59;;;31.81;30.51
68859;BME280;55864;49.238;8.092;2023-06-26T10:55:16;99306.59;;;32.62;30.01
68859;BME280;55864;49.238;8.092;2023-06-26T10:57:23;99305.03;;;32.56;29.50
68859;BME280;55864;49.238;8.092;2023-06-26T10:59:25;99303.94;;;33.04;28.92
68859;BME280;55864;49.238;8.092;2023-06-26T11:01:26;99306.94;;;33.02;29.12
68859;BME280;55864;49.238;8.092;2023-06-26T11:03:29;99301.31;;;33.17;29.02
68859;BME280;55864;49.238;8.092;2023-06-26T11:05:33;99297.75;;;32.93;28.72
68859;BME280;55864;49.238;8.092;2023-06-26T11:07:33;99304.56;;;32.96;28.74
68859;BME280;55864;49.238;8.092;2023-06-26T11:09:53;99297.19;;;32.73;28.65
68859;BME280;55864;49.238;8.092;2023-06-26T11:11:59;99293.34;;;33.02;28.38
68859;BME280;55864;49.238;8.092;2023-06-26T11:13:59;99289.97;;;32.87;28.27
68859;BME280;55864;49.238;8.092;2023-06-26T11:16:01;99296.06;;;33.02;27.26
68859;BME280;55864;49.238;8.092;2023-06-26T11:18:02;99305.75;;;33.08;27.29
68859;BME280;55864;49.238;8.092;2023-06-26T11:20:03;99302.97;;;32.90;27.13
68859;BME280;55864;49.238;8.092;2023-06-26T11:22:05;99307.78;;;33.21;26.85
68859;BME280;55864;49.238;8.092;2023-06-26T11:24:06;99319.91;;;32.87;27.12
68859;BME280;55864;49.238;8.092;2023-06-26T11:26:17;99308.84;;;32.78;26.88
68859;BME280;55864;49.238;8.092;2023-06-26T11:28:21;99305.97;;;32.70;27.00
68859;BME280;55864;49.238;8.092;2023-06-26T11:30:25;99307.78;;;32.74;26.95
68859;BME280;55864;49.238;8.092;2023-06-26T11:32:26;99307.53;;;32.76;26.95
68859;BME280;55864;49.238;8.092;2023-06-26T11:34:30;99318.75;;;32.69;26.92
68859;BME280;55864;49.238;8.092;2023-06-26T11:36:31;99307.47;;;32.57;27.22
68859;BME280;55864;49.238;8.092;2023-06-26T11:38:38;99306.13;;;32.55;26.96
68859;BME280;55864;49.238;8.092;2023-06-26T11:40:38;99315.97;;;32.51;27.21
68859;BME280;55864;49.238;8.092;2023-06-26T11:42:39;99316.41;;;32.58;27.41
68859;BME280;55864;49.238;8.092;2023-06-26T11:44:40;99312.56;;;32.35;27.85
68859;BME280;55864;49.238;8.092;2023-06-26T11:46:42;99312.91;;;32.28;27.92
68859;BME280;55864;49.238;8.092;2023-06-26T11:48:42;99327.13;;;32.20;28.01
68859;BME280;55864;49.238;8.092;2023-06-26T11:50:43;99328.06;;;32.34;27.09
68859;BME280;55864;49.238;8.092;2023-06-26T11:52:43;99331.97;;;32.23;27.57
68859;BME280;55864;49.238;8.092;2023-06-26T11:54:45;99322.59;;;32.11;27.98
68859;BME280;55864;49.238;8.092;2023-06-26T11:56:52;99317.19;;;32.06;27.52
68859;BME280;55864;49.238;8.092;2023-06-26T11:58:56;99313.53;;;31.82;27.28
68859;BME280;55864;49.238;8.092;2023-06-26T12:00:57;99335.56;;;31.80;27.79
68859;BME280;55864;49.238;8.092;2023-06-26T12:02:58;99326.16;;;31.68;27.84
68859;BME280;55864;49.238;8.092;2023-06-26T12:04:58;99334.59;;;31.66;27.54
68859;BME280;55864;49.238;8.092;2023-06-26T12:06:59;99344.19;;;31.54;27.76
68859;BME280;55864;49.238;8.092;2023-06-26T12:09:01;99322.63;;;31.67;27.18
68859;BME280;55864;49.238;8.092;2023-06-26T12:11:04;99327.22;;;31.72;27.32
68859;BME280;55864;49.238;8.092;2023-06-26T12:13:04;99333.31;;;31.59;27.87
68859;BME280;55864;49.238;8.092;2023-06-26T12:15:06;99336.81;;;31.59;28.19
68859;BME280;55864;49.238;8.092;2023-06-26T12:17:09;99320.59;;;31.49;28.17
68859;BME280;55864;49.238;8.092;2023-06-26T12:19:10;99324.44;;;31.43;28.00
68859;BME280;55864;49.238;8.092;2023-06-26T12:21:28;99322.84;;;31.27;28.61
68859;BME280;55864;49.238;8.092;2023-06-26T12:23:32;99329.75;;;31.09;28.63
68859;BME280;55864;49.238;8.092;2023-06-26T12:25:33;99319.66;;;31.10;28.34
68859;BME280;55864;49.238;8.092;2023-06-26T12:27:35;99322.69;;;31.57;28.06
68859;BME280;55864;49.238;8.092;2023-06-26T12:29:37;99325.63;;;31.66;28.46
68859;BME280;55864;49.238;8.092;2023-06-26T12:31:40;99314.28;;;31.59;28.74
68859;BME280;55864;49.238;8.092;2023-06-26T12:33:42;99314.25;;;31.64;28.70
68859;BME280;55864;49.238;8.092;2023-06-26T12:35:42;99311.97;;;31.76;28.30
68859;BME280;55864;49.238;8.092;2023-06-26T12:37:43;99321.25;;;31.70;28.40
68859;BME280;55864;49.238;8.092;2023-06-26T12:39:48;99309.81;;;31.73;28.89